Flight Track Log - Related Links

Times and Time Zones

All times are in EDT time to prevent confusion due to time zone crossing. See the SWA240 flight status page for this flight to view local times or setup timezone preferences in your user account.

Time Position Orientation Groundspeed Altitude Reporting Facility
EDT Latitude Longitude Course Direction KTS MPH feet Rate Location/Type
Mon 07:39:53 AM 41.6610 -71.4220 144° Southeast 235 270 2,800  Level FlightAware ADS-B
Mon 07:40:13 AM 41.6440 -71.4050 143° Southeast 238 274 3,900 3,429 Climbing FlightAware ADS-B
Mon 07:40:21 AM 41.6360 -71.3990 151° Southeast 237 273 4,400 2,857 Climbing FlightAware ADS-B
Mon 07:40:34 AM 41.6220 -71.3930 162° South 251 289 4,900 2,182 Climbing FlightAware ADS-B
Mon 07:40:54 AM 41.5980 -71.3870 169° South 273 314 5,600 2,927 Climbing FlightAware ADS-B
Mon 07:41:15 AM 41.5720 -71.3790 167° South 277 319 6,900 3,200 Climbing FlightAware ADS-B
Mon 07:41:39 AM 41.5410 -71.3690 166° South 291 335 8,000 3,000 Climbing FlightAware ADS-B
Mon 07:41:59 AM 41.5150 -71.3610 167° South 296 341 9,100 2,885 Climbing FlightAware ADS-B
Mon 07:42:31 AM 41.4700 -71.3450 165° South 319 367 10,500 1,913 Climbing FlightAware ADS-B
Mon 07:43:08 AM 41.4130 -71.3260 166° South 363 418 11,300 1,750 Climbing FlightAware ADS-B
Mon 07:43:43 AM 41.3580 -71.3080 166° South 382 440 12,600 2,500 Climbing FlightAware ADS-B
Mon 07:44:20 AM 41.2900 -71.2860 166° South 400 460 14,300 2,776 Climbing FlightAware ADS-B
Mon 07:44:50 AM 41.2350 -71.2680 166° South 402 463 15,700 2,679 Climbing FlightAware ADS-B
Mon 07:45:16 AM 41.1890 -71.2770 188° South 380 437 16,800 2,526 Climbing FlightAware ADS-B
Mon 07:45:28 AM 41.1700 -71.2910 209° Southwest 374 430 17,300 2,357 Climbing FlightAware ADS-B
Mon 07:45:44 AM 41.1510 -71.3150 224° Southwest 368 423 17,900 2,276 Climbing FlightAware ADS-B
Mon 07:45:57 AM 41.1390 -71.3390 236° Southwest 366 421 18,400 2,625 Climbing FlightAware ADS-B
Mon 07:46:32 AM 41.1140 -71.4110 245° Southwest 365 420 20,000 2,687 Climbing FlightAware ADS-B
Mon 07:47:04 AM 41.0900 -71.4760 244° Southwest 366 421 21,400 2,261 Climbing FlightAware ADS-B
Mon 07:47:41 AM 41.0630 -71.5510 244° Southwest 372 428 22,600 1,833 Climbing FlightAware ADS-B
Mon 07:48:16 AM 41.0370 -71.6240 245° Southwest 381 438 23,600 1,839 Climbing FlightAware ADS-B
Mon 07:48:43 AM 41.0110 -71.6780 237° Southwest 390 449 24,500 1,869 Climbing FlightAware ADS-B
Mon 07:49:17 AM 40.9700 -71.7370 227° Southwest 395 455 25,500 1,714 Climbing FlightAware ADS-B
Mon 07:49:53 AM 40.9240 -71.8030 227° Southwest 401 461 26,500 1,500 Climbing FlightAware ADS-B
Mon 07:50:29 AM 40.8800 -71.8670 228° Southwest 405 466 27,300 1,667 Climbing FlightAware ADS-B
Mon 07:51:05 AM 40.8360 -71.9300 227° Southwest 401 461 28,500 2,028 Climbing FlightAware ADS-B
Mon 07:51:40 AM 40.7900 -71.9950 227° Southwest 395 455 29,700 1,913 Climbing FlightAware ADS-B
Mon 07:52:14 AM 40.7490 -72.0540 227° Southwest 391 450 30,700 1,881 Climbing FlightAware ADS-B
Mon 07:52:47 AM 40.7080 -72.1120 227° Southwest 384 442 31,800 1,833 Climbing FlightAware ADS-B
Mon 07:53:26 AM 40.6610 -72.1780 227° Southwest 375 432 32,900 1,714 Climbing FlightAware ADS-B
Mon 07:53:57 AM 40.6240 -72.2310 227° Southwest 370 426 33,800 1,412 Climbing FlightAware ADS-B
Mon 07:54:34 AM 40.5810 -72.2920 227° Southwest 371 427 34,500 986 Climbing FlightAware ADS-B
Mon 07:55:10 AM 40.5410 -72.3490 227° Southwest 372 428 35,000 882 Climbing FlightAware ADS-B
Mon 07:55:42 AM 40.5020 -72.4040 227° Southwest 374 430 35,500 896 Climbing FlightAware ADS-B
Mon 07:56:17 AM 40.4610 -72.4610 227° Southwest 375 432 36,000 411 Climbing FlightAware ADS-B
Mon 07:56:55 AM 40.4180 -72.5220 227° Southwest 376 433 36,000  Level FlightAware ADS-B
Mon 07:57:26 AM 40.3790 -72.5770 227° Southwest 376 433 36,000  Level FlightAware ADS-B
Mon 07:58:03 AM 40.3370 -72.6350 226° Southwest 375 432 36,000  Level FlightAware ADS-B
Mon 07:58:39 AM 40.2930 -72.6960 227° Southwest 374 430 36,000  Level FlightAware ADS-B
Mon 07:59:14 AM 40.2510 -72.7550 227° Southwest 373 429 36,000  Level FlightAware ADS-B
Mon 07:59:49 AM 40.2100 -72.8120 227° Southwest 374 430 36,000  Level FlightAware ADS-B
Mon 08:00:23 AM 40.1720 -72.8650 227° Southwest 372 428 36,000  Level FlightAware ADS-B
Mon 08:01:01 AM 40.1260 -72.9300 227° Southwest 371 427 36,000  Level FlightAware ADS-B
Mon 08:01:27 AM 40.0950 -72.9720 226° Southwest 369 425 36,000  Level FlightAware ADS-B
Mon 08:02:10 AM 40.0450 -73.0410 227° Southwest 368 423 36,000  Level FlightAware ADS-B
Mon 08:02:41 AM 40.0100 -73.0900 227° Southwest 367 422 36,000  Level FlightAware ADS-B
Mon 08:03:18 AM 39.9650 -73.1520 227° Southwest 367 422 36,000  Level FlightAware ADS-B
Mon 08:03:51 AM 39.9270 -73.2040 226° Southwest 367 422 36,000  Level FlightAware ADS-B
Mon 08:04:21 AM 39.8920 -73.2520 226° Southwest 367 422 36,000  Level FlightAware ADS-B
Mon 08:04:57 AM 39.8490 -73.3120 227° Southwest 366 421 36,000  Level FlightAware ADS-B
Mon 08:05:34 AM 39.8060 -73.3700 226° Southwest 366 421 36,000  Level FlightAware ADS-B
Mon 08:06:06 AM 39.7690 -73.4200 226° Southwest 366 421 36,000  Level FlightAware ADS-B
Mon 08:06:43 AM 39.7250 -73.4800 226° Southwest 366 421 36,000  Level FlightAware ADS-B
Mon 08:07:18 AM 39.6840 -73.5350 226° Southwest 364 419 36,000  Level FlightAware ADS-B
Mon 08:07:55 AM 39.6420 -73.5920 226° Southwest 364 419 36,000  Level FlightAware ADS-B
Mon 08:08:27 AM 39.6070 -73.6400 227° Southwest 364 419 36,000  Level FlightAware ADS-B
Mon 08:09:02 AM 39.5570 -73.6920 219° Southwest 373 429 36,000  Level FlightAware ADS-B
Mon 08:09:39 AM 39.5060 -73.7420 217° Southwest 372 428 36,000  Level FlightAware ADS-B
Mon 08:10:12 AM 39.4630 -73.7850 218° Southwest 373 429 36,000  Level FlightAware ADS-B
Mon 08:10:48 AM 39.4130 -73.8340 217° Southwest 373 429 36,000  Level FlightAware ADS-B
Mon 08:11:39 AM 39.3550 -73.8910 217° Southwest 373 429 36,000  Level FlightAware ADS-B
Mon 08:12:10 AM 39.2990 -73.9460 217° Southwest 373 429 36,000  Level FlightAware ADS-B
Mon 08:12:46 AM 39.2520 -73.9930 218° Southwest 374 430 36,000  Level FlightAware ADS-B
Mon 08:13:20 AM 39.2050 -74.0390 217° Southwest 375 432 36,000  Level FlightAware ADS-B
Mon 08:13:57 AM 39.1520 -74.0910 217° Southwest 376 433 36,000  Level FlightAware ADS-B
Mon 08:14:32 AM 39.1050 -74.1370 217° Southwest 376 433 36,000  Level FlightAware ADS-B
Mon 08:15:06 AM 39.0560 -74.1850 217° Southwest 375 432 36,000  Level FlightAware ADS-B
Mon 08:15:42 AM 39.0090 -74.2300 217° Southwest 369 425 36,000  Level FlightAware ADS-B
Mon 08:16:14 AM 38.9710 -74.2670 217° Southwest 369 425 36,000  Level FlightAware ADS-B
Mon 08:16:57 AM 38.9070 -74.3300 217° Southwest 368 423 36,000  Level FlightAware ADS-B
Mon 08:17:33 AM 38.8560 -74.3790 217° Southwest 367 422 36,000  Level FlightAware ADS-B
Mon 08:18:16 AM 38.7960 -74.4360 217° Southwest 366 421 36,000  Level FlightAware ADS-B
Mon 08:18:52 AM 38.7530 -74.4780 217° Southwest 366 421 36,000  Level FlightAware ADS-B
Mon 08:19:22 AM 38.7050 -74.5250 217° Southwest 365 420 36,000  Level FlightAware ADS-B
Mon 08:20:07 AM 38.6440 -74.5830 217° Southwest 364 419 36,000  Level FlightAware ADS-B
Mon 08:20:42 AM 38.5950 -74.6310 217° Southwest 363 418 36,000  Level FlightAware ADS-B
Mon 08:21:15 AM 38.5510 -74.6730 217° Southwest 362 417 36,000  Level FlightAware ADS-B
Mon 08:21:49 AM 38.5090 -74.7130 217° Southwest 367 422 36,000  Level FlightAware ADS-B
Mon 08:22:24 AM 38.4590 -74.7600 216° Southwest 366 421 36,000 658 Level FlightAware ADS-B
Mon 08:23:02 AM 38.4050 -74.8120 217° Southwest 363 418 36,800 1,013 Climbing FlightAware ADS-B
Mon 08:23:41 AM 38.3560 -74.8580 216° Southwest 361 415 37,300 800 Climbing FlightAware ADS-B
Mon 08:24:17 AM 38.3060 -74.9060 217° Southwest 363 418 37,800 583 Climbing FlightAware ADS-B
Mon 08:24:53 AM 38.2580 -74.9520 217° Southwest 367 422 38,000 164 Climbing FlightAware ADS-B
Mon 08:25:30 AM 38.2070 -75.0000 216° Southwest 363 418 38,000  Level FlightAware ADS-B
Mon 08:26:10 AM 38.1530 -75.0510 217° Southwest 365 420 38,000  Level FlightAware ADS-B
Mon 08:26:46 AM 38.1020 -75.0990 217° Southwest 366 421 38,000  Level FlightAware ADS-B
Mon 08:27:21 AM 38.0530 -75.1450 216° Southwest 367 422 38,000  Level FlightAware ADS-B
Mon 08:27:56 AM 38.0050 -75.1900 216° Southwest 366 421 38,000  Level FlightAware ADS-B
Mon 08:28:31 AM 37.9570 -75.2350 216° Southwest 366 421 38,000  Level FlightAware ADS-B
Mon 08:29:08 AM 37.9020 -75.2860 216° Southwest 370 426 38,000  Level FlightAware ADS-B
Mon 08:29:43 AM 37.8570 -75.3290 217° Southwest 369 425 38,000  Level FlightAware ADS-B
Mon 08:30:24 AM 37.7990 -75.3830 216° Southwest 368 423 38,000  Level FlightAware ADS-B
Mon 08:30:59 AM 37.7510 -75.4280 217° Southwest 368 423 38,000  Level FlightAware ADS-B
Mon 08:31:34 AM 37.7040 -75.4710 216° Southwest 367 422 38,000  Level FlightAware ADS-B
Mon 08:32:08 AM 37.6570 -75.5150 217° Southwest 366 421 38,000  Level FlightAware ADS-B
Mon 08:32:43 AM 37.6080 -75.5600 216° Southwest 366 421 38,000  Level FlightAware ADS-B
Mon 08:33:19 AM 37.5600 -75.6050 217° Southwest 364 419 38,000  Level FlightAware ADS-B
Mon 08:33:55 AM 37.5120 -75.6490 216° Southwest 365 420 38,000  Level FlightAware ADS-B
Mon 08:34:36 AM 37.4550 -75.7020 216° Southwest 365 420 38,000  Level FlightAware ADS-B
Mon 08:35:08 AM 37.4120 -75.7420 216° Southwest 364 419 38,000  Level FlightAware ADS-B
Mon 08:35:49 AM 37.3560 -75.7930 216° Southwest 365 420 38,000  Level FlightAware ADS-B
Mon 08:36:28 AM 37.3050 -75.8400 216° Southwest 364 419 38,000  Level FlightAware ADS-B
Mon 08:37:03 AM 37.2620 -75.8790 216° Southwest 364 419 38,000  Level FlightAware ADS-B
Mon 08:37:35 AM 37.2130 -75.9240 216° Southwest 365 420 38,000  Level FlightAware ADS-B
Mon 08:38:20 AM 37.1570 -75.9750 216° Southwest 364 419 38,000  Level FlightAware ADS-B
Mon 08:38:58 AM 37.1040 -76.0240 216° Southwest 364 419 38,000  Level FlightAware ADS-B
Mon 08:39:28 AM 37.0630 -76.0610 216° Southwest 358 412 38,000  Level FlightAware ADS-B
Mon 08:40:03 AM 37.0160 -76.1030 216° Southwest 358 412 38,000  Level FlightAware ADS-B
Mon 08:40:52 AM 36.9480 -76.1650 216° Southwest 364 419 38,000  Level FlightAware ADS-B
Mon 08:41:25 AM 36.8970 -76.2110 216° Southwest 365 420 38,000  Level FlightAware ADS-B
Mon 08:42:03 AM 36.8460 -76.2570 216° Southwest 365 420 38,000  Level FlightAware ADS-B
Mon 08:42:39 AM 36.7970 -76.3020 216° Southwest 365 420 38,000  Level FlightAware ADS-B
Mon 08:43:11 AM 36.7520 -76.3420 215° Southwest 366 421 38,000  Level FlightAware ADS-B
Mon 08:43:51 AM 36.6980 -76.3910 216° Southwest 367 422 38,000  Level FlightAware ADS-B
Mon 08:44:23 AM 36.6560 -76.4290 216° Southwest 368 423 38,000  Level FlightAware ADS-B
Mon 08:44:56 AM 36.6090 -76.4700 215° Southwest 362 417 38,000  Level FlightAware ADS-B
Mon 08:45:32 AM 36.5620 -76.5130 216° Southwest 362 417 38,000  Level FlightAware ADS-B
Mon 08:46:12 AM 36.5060 -76.5630 216° Southwest 363 418 38,000  Level FlightAware ADS-B
Mon 08:46:41 AM 36.4640 -76.6010 216° Southwest 363 418 38,000  Level FlightAware ADS-B
Mon 08:47:16 AM 36.4150 -76.6440 215° Southwest 362 417 38,000  Level FlightAware ADS-B
Mon 08:47:56 AM 36.3600 -76.6930 216° Southwest 362 417 38,000  Level FlightAware ADS-B
Mon 08:48:36 AM 36.3050 -76.7420 216° Southwest 360 414 38,000  Level FlightAware ADS-B
Mon 08:49:12 AM 36.2560 -76.7850 215° Southwest 359 413 38,000  Level FlightAware ADS-B
Mon 08:49:46 AM 36.2080 -76.8270 215° Southwest 359 413 38,000  Level FlightAware ADS-B
Mon 08:50:21 AM 36.1600 -76.8700 216° Southwest 359 413 38,000  Level FlightAware ADS-B
Mon 08:50:57 AM 36.1120 -76.9120 215° Southwest 358 412 38,000  Level FlightAware ADS-B
Mon 08:51:32 AM 36.0650 -76.9530 215° Southwest 358 412 38,000  Level FlightAware ADS-B
Mon 08:52:06 AM 36.0160 -76.9970 216° Southwest 358 412 38,000  Level FlightAware ADS-B
Mon 08:52:47 AM 35.9660 -77.0410 215° Southwest 359 413 38,000  Level FlightAware ADS-B
Mon 08:53:22 AM 35.9140 -77.0860 215° Southwest 359 413 38,000  Level FlightAware ADS-B
Mon 08:54:00 AM 35.8580 -77.1350 215° Southwest 365 420 38,000  Level FlightAware ADS-B
Mon 08:54:32 AM 35.8150 -77.1730 216° Southwest 365 420 38,000  Level FlightAware ADS-B
Mon 08:55:05 AM 35.7690 -77.2130 215° Southwest 366 421 38,000  Level FlightAware ADS-B
Mon 08:55:42 AM 35.7200 -77.2560 215° Southwest 359 413 38,000  Level FlightAware ADS-B
Mon 08:56:21 AM 35.6660 -77.3030 215° Southwest 366 421 38,000  Level FlightAware ADS-B
Mon 08:57:02 AM 35.6660 -77.3030 215° Southwest 367 422 38,000  Level FlightAware ADS-B
Mon 08:57:32 AM 35.6130 -77.3500 216° Southwest 363 418 38,000  Level FlightAware ADS-B
Mon 08:58:14 AM 35.5160 -77.4500 220° Southwest 361 415 38,000  Level FlightAware ADS-B
Mon 08:58:47 AM 35.5200 -77.4460 39° Northeast 361 415 38,000  Level FlightAware ADS-B
Mon 08:59:27 AM 35.4760 -77.4910 220° Southwest 361 415 38,000  Level FlightAware ADS-B
Mon 09:00:05 AM 35.3740 -77.5960 220° Southwest 361 415 38,000  Level FlightAware ADS-B
Mon 09:00:45 AM 35.3240 -77.6470 220° Southwest 362 417 38,000  Level FlightAware ADS-B
Mon 09:01:19 AM 35.2790 -77.6930 220° Southwest 363 418 38,000  Level FlightAware ADS-B
Mon 09:01:55 AM 35.2320 -77.7410 220° Southwest 363 418 38,000  Level FlightAware ADS-B
Mon 09:02:25 AM 35.1940 -77.7800 220° Southwest 364 419 38,000  Level FlightAware ADS-B
Mon 09:03:01 AM 35.1510 -77.8240 220° Southwest 365 420 38,000  Level FlightAware ADS-B
Mon 09:03:37 AM 35.1020 -77.8730 219° Southwest 366 421 38,000  Level FlightAware ADS-B
Mon 09:04:13 AM 35.0580 -77.9180 220° Southwest 368 423 38,000  Level FlightAware ADS-B
Mon 09:04:47 AM 35.0150 -77.9620 220° Southwest 368 423 38,000  Level FlightAware ADS-B
Mon 09:05:34 AM 34.9480 -78.0290 219° Southwest 363 418 38,000  Level FlightAware ADS-B
Mon 09:06:04 AM 34.9080 -78.0690 219° Southwest 364 419 38,000  Level FlightAware ADS-B
Mon 09:06:39 AM 34.8640 -78.1140 220° Southwest 365 420 38,000  Level FlightAware ADS-B
Mon 09:07:14 AM 34.8180 -78.1600 219° Southwest 366 421 38,000  Level FlightAware ADS-B
Mon 09:07:49 AM 34.7700 -78.2080 219° Southwest 372 428 38,000  Level FlightAware ADS-B
Mon 09:08:34 AM 34.7140 -78.2650 220° Southwest 373 429 38,000  Level FlightAware ADS-B
Mon 09:09:09 AM 34.6620 -78.3170 219° Southwest 373 429 38,000  Level FlightAware ADS-B
Mon 09:09:45 AM 34.6130 -78.3660 219° Southwest 373 429 38,000  Level FlightAware ADS-B
Mon 09:10:17 AM 34.5720 -78.4070 219° Southwest 373 429 38,000  Level FlightAware ADS-B
Mon 09:10:57 AM 34.5220 -78.4570 219° Southwest 371 427 38,000  Level FlightAware ADS-B
Mon 09:11:38 AM 34.4730 -78.5050 219° Southwest 371 427 38,000  Level FlightAware ADS-B
Mon 09:12:12 AM 34.4670 -78.5110 220° Southwest 371 427 38,000  Level FlightAware ADS-B
Mon 09:12:44 AM 34.4200 -78.5580 220° Southwest 369 425 38,000  Level FlightAware ADS-B
Mon 09:13:17 AM 34.3840 -78.5940 220° Southwest 370 426 38,000  Level FlightAware ADS-B
Mon 09:13:52 AM 34.3330 -78.6450 220° Southwest 369 425 38,000  Level FlightAware ADS-B
Mon 09:14:44 AM 34.2720 -78.7050 219° Southwest 369 425 38,000  Level FlightAware ADS-B
Mon 09:15:17 AM 34.2280 -78.7480 219° Southwest 368 423 38,000  Level FlightAware ADS-B
Mon 09:15:53 AM 34.1880 -78.7880 220° Southwest 368 423 38,000  Level FlightAware ADS-B
Mon 09:16:27 AM 34.1540 -78.8210 219° Southwest 368 423 38,000  Level FlightAware ADS-B
Mon 09:17:07 AM 34.1020 -78.8720 219° Southwest 370 426 38,000  Level FlightAware ADS-B
Mon 09:17:48 AM 33.9740 -78.9980 219° Southwest 374 430 38,000  Level FlightAware ADS-B
Mon 09:18:22 AM 33.9270 -79.0440 219° Southwest 375 432 38,000  Level FlightAware ADS-B
Mon 09:18:57 AM 33.8810 -79.0890 219° Southwest 376 433 38,000  Level FlightAware ADS-B
Mon 09:19:32 AM 33.8330 -79.1360 219° Southwest 376 433 38,000  Level FlightAware ADS-B
Mon 09:20:03 AM 33.7920 -79.1760 219° Southwest 377 434 38,000  Level FlightAware ADS-B
Mon 09:20:39 AM 33.7430 -79.2230 219° Southwest 377 434 38,000  Level FlightAware ADS-B
Mon 09:21:14 AM 33.7010 -79.2640 219° Southwest 378 435 38,000  Level FlightAware ADS-B
Mon 09:21:53 AM 33.6420 -79.3210 219° Southwest 379 436 38,000  Level FlightAware ADS-B
Mon 09:22:25 AM 33.5980 -79.3640 219° Southwest 381 438 38,000  Level FlightAware ADS-B
Mon 09:23:02 AM 33.5470 -79.4130 219° Southwest 381 438 38,000  Level FlightAware ADS-B
Mon 09:23:39 AM 33.4970 -79.4620 219° Southwest 381 438 38,000  Level FlightAware ADS-B
Mon 09:24:11 AM 33.4530 -79.5040 219° Southwest 382 440 38,000  Level FlightAware ADS-B
Mon 09:24:48 AM 33.4030 -79.5520 219° Southwest 382 440 38,000  Level FlightAware ADS-B
Mon 09:25:29 AM 33.3470 -79.6060 219° Southwest 382 440 38,000  Level FlightAware ADS-B
Mon 09:26:09 AM 33.2910 -79.6600 219° Southwest 382 440 38,000  Level FlightAware ADS-B
Mon 09:26:47 AM 33.2370 -79.7110 218° Southwest 382 440 38,000  Level FlightAware ADS-B
Mon 09:27:22 AM 33.1920 -79.7540 219° Southwest 382 440 38,000  Level FlightAware ADS-B
Mon 09:27:55 AM 33.1440 -79.8000 219° Southwest 383 441 38,000  Level FlightAware ADS-B
Mon 09:28:31 AM 33.0930 -79.8480 218° Southwest 382 440 38,000  Level FlightAware ADS-B
Mon 09:29:08 AM 33.0420 -79.8970 219° Southwest 382 440 38,000  Level FlightAware ADS-B
Mon 09:29:39 AM 33.0020 -79.9360 219° Southwest 384 442 38,000  Level FlightAware ADS-B
Mon 09:30:16 AM 32.9500 -79.9850 218° Southwest 384 442 38,000  Level FlightAware ADS-B
Mon 09:30:52 AM 32.8980 -80.0340 218° Southwest 387 445 38,000  Level FlightAware ADS-B
Mon 09:31:27 AM 32.8440 -80.0750 213° Southwest 392 451 38,000  Level FlightAware ADS-B
Mon 09:32:00 AM 32.7950 -80.1110 212° Southwest 393 452 38,000  Level FlightAware ADS-B
Mon 09:32:36 AM 32.7390 -80.1530 212° Southwest 394 453 38,000  Level FlightAware ADS-B
Mon 09:33:11 AM 32.6840 -80.1930 211° Southwest 395 455 38,000  Level FlightAware ADS-B
Mon 09:33:41 AM 32.6390 -80.2260 212° Southwest 394 453 38,000  Level FlightAware ADS-B
Mon 09:34:20 AM 32.5770 -80.2710 211° Southwest 394 453 38,000  Level FlightAware ADS-B
Mon 09:34:58 AM 32.5200 -80.3140 212° Southwest 395 455 38,000  Level FlightAware ADS-B
Mon 09:35:30 AM 32.4690 -80.3510 211° Southwest 395 455 38,000  Level FlightAware ADS-B
Mon 09:36:07 AM 32.4130 -80.3920 212° Southwest 394 453 38,000  Level FlightAware ADS-B
Mon 09:36:39 AM 32.3620 -80.4290 212° Southwest 392 451 38,000  Level FlightAware ADS-B
Mon 09:37:13 AM 32.3100 -80.4670 212° Southwest 390 449 38,000  Level FlightAware ADS-B
Mon 09:37:51 AM 32.2510 -80.5100 212° Southwest 387 445 38,000 -486 Level FlightAware ADS-B
Mon 09:38:27 AM 32.1950 -80.5510 212° Southwest 388 447 37,400 -957 Descending FlightAware ADS-B
Mon 09:39:00 AM 32.1450 -80.5870 211° Southwest 390 449 36,900 -896 Descending FlightAware ADS-B
Mon 09:39:34 AM 32.0920 -80.6250 211° Southwest 390 449 36,400 -930 Descending FlightAware ADS-B
Mon 09:40:11 AM 32.0350 -80.6670 212° Southwest 390 449 35,800 -1,029 Descending FlightAware ADS-B
Mon 09:40:44 AM 31.9850 -80.7030 211° Southwest 391 450 35,200 -943 Descending FlightAware ADS-B
Mon 09:41:21 AM 31.9290 -80.7430 211° Southwest 393 452 34,700 -904 Descending FlightAware ADS-B
Mon 09:41:57 AM 31.8720 -80.7840 211° Southwest 391 450 34,100 -609 Descending FlightAware ADS-B
Mon 09:42:30 AM 31.8210 -80.8210 212° Southwest 391 450 34,000 -86 Descending FlightAware ADS-B
Mon 09:43:07 AM 31.7630 -80.8630 212° Southwest 391 450 34,000  Level FlightAware ADS-B
Mon 09:43:41 AM 31.7120 -80.8990 211° Southwest 392 451 34,000  Level FlightAware ADS-B
Mon 09:44:03 AM 31.6740 -80.9150 200° South 403 464 34,000  Level FlightAware ADS-B
Mon 09:44:36 AM 31.6120 -80.9300 192° South 408 470 34,000  Level FlightAware ADS-B
Mon 09:45:10 AM 31.5480 -80.9450 191° South 408 470 34,000  Level FlightAware ADS-B
Mon 09:45:45 AM 31.4840 -80.9600 191° South 410 472 34,000  Level FlightAware ADS-B
Mon 09:46:22 AM 31.4150 -80.9770 192° South 411 473 34,000  Level FlightAware ADS-B
Mon 09:46:57 AM 31.3490 -80.9920 191° South 413 475 34,000  Level FlightAware ADS-B
Mon 09:47:31 AM 31.2850 -81.0070 191° South 414 476 34,000  Level FlightAware ADS-B
Mon 09:48:06 AM 31.2200 -81.0220 191° South 414 476 34,000  Level FlightAware ADS-B
Mon 09:48:56 AM 31.1250 -81.0430 191° South 415 478 34,000  Level FlightAware ADS-B
Mon 09:49:28 AM 31.0630 -81.0540 189° South 423 487 34,000  Level FlightAware ADS-B
Mon 09:50:07 AM 30.9890 -81.0560 181° South 426 490 34,000  Level FlightAware ADS-B
Mon 09:50:39 AM 30.9240 -81.0580 182° South 426 490 34,000  Level FlightAware ADS-B
Mon 09:51:15 AM 30.8560 -81.0600 181° South 427 491 34,000  Level FlightAware ADS-B
Mon 09:51:51 AM 30.7850 -81.0630 182° South 427 491 34,000  Level FlightAware ADS-B
Mon 09:52:28 AM 30.7090 -81.0650 181° South 428 493 34,000  Level FlightAware ADS-B
Mon 09:52:59 AM 30.6500 -81.0670 182° South 428 493 34,000  Level FlightAware ADS-B
Mon 09:53:35 AM 30.5750 -81.0700 182° South 428 493 34,000  Level FlightAware ADS-B
Mon 09:54:12 AM 30.5030 -81.0720 181° South 429 494 34,000  Level FlightAware ADS-B
Mon 09:54:47 AM 30.4340 -81.0750 182° South 429 494 34,000  Level FlightAware ADS-B
Mon 09:55:23 AM 30.3650 -81.0770 181° South 429 494 34,000  Level FlightAware ADS-B
Mon 09:55:58 AM 30.2920 -81.0790 181° South 429 494 34,000  Level FlightAware ADS-B
Mon 09:56:31 AM 30.2250 -81.0820 182° South 434 499 34,000  Level FlightAware ADS-B
Mon 09:57:08 AM 30.1510 -81.0840 181° South 438 504 34,000  Level FlightAware ADS-B
Mon 09:57:40 AM 30.0870 -81.0860 182° South 439 505 34,000 -957 Level FlightAware ADS-B
Mon 09:58:17 AM 30.0110 -81.0890 182° South 439 505 32,900 -2,500 Descending FlightAware ADS-B
Mon 09:58:52 AM 29.9400 -81.0920 182° South 438 504 31,000 -3,304 Descending FlightAware ADS-B
Mon 09:59:26 AM 29.8710 -81.0940 181° South 431 496 29,100 -3,465 Descending FlightAware ADS-B
Mon 10:00:03 AM 29.7970 -81.0960 181° South 425 489 26,900 -3,257 Descending FlightAware ADS-B
Mon 10:00:36 AM 29.7380 -81.0980 182° South 420 483 25,300 -2,609 Descending FlightAware ADS-B
Mon 10:01:12 AM 29.6640 -81.1000 181° South 407 468 23,900 -2,197 Descending FlightAware ADS-B
Mon 10:01:47 AM 29.5990 -81.1020 182° South 401 461 22,700 -2,206 Descending FlightAware ADS-B
Mon 10:02:20 AM 29.5370 -81.1050 182° South 401 461 21,400 -2,328 Descending FlightAware ADS-B
Mon 10:02:54 AM 29.4740 -81.1070 182° South 393 452 20,100 -2,348 Descending FlightAware ADS-B
Mon 10:03:29 AM 29.4120 -81.1090 182° South 386 444 18,700 -2,333 Descending FlightAware ADS-B
Mon 10:04:06 AM 29.3470 -81.1110 182° South 380 437 17,300 -2,308 Descending FlightAware ADS-B
Mon 10:04:47 AM 29.2740 -81.1100 179° South 376 433 15,700 -2,301 Descending FlightAware ADS-B
Mon 10:05:19 AM 29.2190 -81.1060 176° South 371 427 14,500 -2,282 Descending FlightAware ADS-B
Mon 10:05:58 AM 29.1510 -81.1000 176° South 366 421 13,000 -1,703 Descending FlightAware ADS-B
Mon 10:06:33 AM 29.0950 -81.0960 176° South 343 395 12,400 -833 Descending FlightAware ADS-B
Mon 10:07:10 AM 29.0390 -81.0910 176° South 318 366 12,000 -448 Descending FlightAware ADS-B
Mon 10:07:40 AM 28.9960 -81.0860 174° South 309 356 11,900 -324 Descending FlightAware ADS-B
Mon 10:08:24 AM 28.9400 -81.0760 171° South 306 352 11,600 -225 Descending FlightAware ADS-B
Mon 10:09:00 AM 28.8970 -81.0690 172° South 306 352 11,600  Level FlightAware ADS-B
Mon 10:09:37 AM 28.8530 -81.0610 171° South 306 352 11,600 -2,083 Level FlightAware ADS-B
Mon 10:10:12 AM 28.7980 -81.0320 155° Southeast 255 293 9,100 -2,459 Descending FlightAware ADS-B
Mon 10:10:38 AM 28.7730 -81.0230 162° South 255 293 9,100  Level FlightAware ADS-B
Mon 10:11:02 AM 28.7500 -81.0140 161° South 255 293 9,100  Level FlightAware ADS-B
Mon 10:11:40 AM 28.7140 -81.0010 162° South 255 293 9,100 -1,909 Level FlightAware ADS-B
Mon 10:11:46 AM 28.7590 -81.1010 297° West 228 262 7,700 -4,138 Descending FlightAware ADS-B
Mon 10:12:09 AM 28.7560 -81.1350 264° West 227 261 7,100 -1,571 Descending FlightAware ADS-B
Mon 10:12:28 AM 28.7520 -81.1620 260° West 222 255 6,600 -1,395 Descending FlightAware ADS-B
Mon 10:12:52 AM 28.7490 -81.1890 263° West 220 253 6,100 -1,174 Descending FlightAware ADS-B
Mon 10:13:14 AM 28.7460 -81.2130 262° West 210 242 5,700 -1,105 Descending FlightAware ADS-B
Mon 10:13:30 AM 28.7440 -81.2300 262° West 207 238 5,400 -1,024 Descending FlightAware ADS-B
Mon 10:13:55 AM 28.7410 -81.2580 263° West 204 235 5,000 -909 Descending FlightAware ADS-B
Mon 10:14:03 AM 28.7390 -81.2670 256° West 200 230 4,900 -300 Descending FlightAware ADS-B
Mon 10:14:15 AM 28.7330 -81.2770 236° Southwest 196 226 4,900  Level FlightAware ADS-B
Mon 10:14:23 AM 28.7270 -81.2800 204° Southwest 196 226 4,900  Level FlightAware ADS-B
Mon 10:14:30 AM 28.7210 -81.2810 188° South 197 227 4,900 -621 Level FlightAware ADS-B
Mon 10:14:52 AM 28.7010 -81.2850 190° South 193 222 4,600 -878 Descending FlightAware ADS-B
Mon 10:15:11 AM 28.6870 -81.2850 180° South 188 216 4,300 -923 Descending FlightAware ADS-B
Mon 10:15:31 AM 28.6670 -81.2850 180° South 182 209 4,000 -585 Descending FlightAware ADS-B
Mon 10:15:52 AM 28.6490 -81.2850 180° South 176 203 3,900 -143 Descending FlightAware ADS-B
Mon 10:16:13 AM 28.6350 -81.2840 176° South 174 200 3,900 -533 Level FlightAware ADS-B
Mon 10:16:37 AM 28.6140 -81.2840 180° South 178 205 3,500 -1,250 Descending FlightAware ADS-B
Mon 10:17:01 AM 28.5930 -81.2840 180° South 183 211 2,900 -667 Descending FlightAware ADS-B
Mon 10:17:31 AM 28.5700 -81.2840 180° South 183 211 2,900 -857 Level FlightAware ADS-B
Mon 10:17:57 AM 28.5480 -81.2840 180° South 163 188 2,100 -1,532 Descending FlightAware ADS-B
Mon 10:18:18 AM 28.5320 -81.2830 177° South 155 178 1,700 -828 Descending FlightAware ADS-B
Mon 10:18:55 AM 28.5060 -81.2830 180° South 154 177 1,300 -667 Descending FlightAware ADS-B
Mon 10:19:12 AM 28.4950 -81.2830 180° South 155 178 1,100 -279 Descending FlightAware ADS-B
Mon 10:19:38 AM 28.4790 -81.2830 180° South 155 178 1,100  Level FlightAware ADS-B
Mon 10:27:00 AM 28.4294 -81.3090 336° Northwest  Level Estimated
Mon 10:28:00 AM 28.4294 -81.3090 336° Northwest  Level Estimated
Mon 10:29:00 AM 28.4294 -81.3090 336° Northwest  Level Estimated
Mon 10:30:00 AM 28.4294 -81.3090 336° Northwest  Level Estimated
Mon 10:31:00 AM 28.4294 -81.3090 336° Northwest  Level Estimated

Login

Don't have an account? Register now (free) for customized features, flight alerts, and more!